sensor_id;sensor_type;location;lat;lon;timestamp;P1;durP1;ratioP1;P2;durP2;ratioP2
21671;SDS011;10997;52.242;8.168;2023-02-12T00:00:26;20.23;;;12.23;;
21671;SDS011;10997;52.242;8.168;2023-02-12T00:05:27;22.65;;;13.68;;
21671;SDS011;10997;52.242;8.168;2023-02-12T00:10:27;25.70;;;14.23;;
21671;SDS011;10997;52.242;8.168;2023-02-12T00:15:28;25.45;;;15.32;;
21671;SDS011;10997;52.242;8.168;2023-02-12T00:20:28;27.00;;;15.75;;
21671;SDS011;10997;52.242;8.168;2023-02-12T00:25:29;27.63;;;16.60;;
21671;SDS011;10997;52.242;8.168;2023-02-12T00:30:29;30.83;;;18.70;;
21671;SDS011;10997;52.242;8.168;2023-02-12T00:35:30;32.55;;;17.80;;
21671;SDS011;10997;52.242;8.168;2023-02-12T00:40:31;31.58;;;18.45;;
21671;SDS011;10997;52.242;8.168;2023-02-12T00:45:31;31.95;;;19.50;;
21671;SDS011;10997;52.242;8.168;2023-02-12T00:50:32;34.13;;;18.70;;
21671;SDS011;10997;52.242;8.168;2023-02-12T00:55:32;34.20;;;19.02;;
21671;SDS011;10997;52.242;8.168;2023-02-12T01:00:33;25.92;;;17.25;;
21671;SDS011;10997;52.242;8.168;2023-02-12T01:05:34;31.52;;;17.38;;
21671;SDS011;10997;52.242;8.168;2023-02-12T01:10:35;27.30;;;16.63;;
21671;SDS011;10997;52.242;8.168;2023-02-12T01:15:36;30.02;;;16.17;;
21671;SDS011;10997;52.242;8.168;2023-02-12T01:20:38;28.23;;;16.60;;
21671;SDS011;10997;52.242;8.168;2023-02-12T01:25:39;27.67;;;17.00;;
21671;SDS011;10997;52.242;8.168;2023-02-12T01:30:39;27.73;;;15.82;;
21671;SDS011;10997;52.242;8.168;2023-02-12T01:35:40;29.20;;;16.95;;
21671;SDS011;10997;52.242;8.168;2023-02-12T01:40:40;30.88;;;15.50;;
21671;SDS011;10997;52.242;8.168;2023-02-12T01:45:46;31.02;;;17.30;;
21671;SDS011;10997;52.242;8.168;2023-02-12T01:50:48;26.70;;;17.27;;
21671;SDS011;10997;52.242;8.168;2023-02-12T01:55:52;27.92;;;17.58;;
21671;SDS011;10997;52.242;8.168;2023-02-12T02:00:57;33.65;;;19.48;;
21671;SDS011;10997;52.242;8.168;2023-02-12T02:06:01;35.22;;;19.65;;
21671;SDS011;10997;52.242;8.168;2023-02-12T02:11:08;35.53;;;19.92;;
21671;SDS011;10997;52.242;8.168;2023-02-12T02:16:27;37.45;;;21.58;;
21671;SDS011;10997;52.242;8.168;2023-02-12T02:21:34;36.45;;;23.40;;
21671;SDS011;10997;52.242;8.168;2023-02-12T02:26:53;46.78;;;23.40;;
21671;SDS011;10997;52.242;8.168;2023-02-12T02:42:55;44.90;;;25.77;;
21671;SDS011;10997;52.242;8.168;2023-02-12T02:48:16;47.80;;;26.25;;
21671;SDS011;10997;52.242;8.168;2023-02-12T02:53:25;44.78;;;26.42;;
21671;SDS011;10997;52.242;8.168;2023-02-12T02:58:34;48.85;;;28.80;;
21671;SDS011;10997;52.242;8.168;2023-02-12T03:08:57;53.20;;;28.60;;
21671;SDS011;10997;52.242;8.168;2023-02-12T03:14:27;53.60;;;30.30;;
21671;SDS011;10997;52.242;8.168;2023-02-12T03:19:41;51.53;;;30.92;;
21671;SDS011;10997;52.242;8.168;2023-02-12T03:24:56;58.13;;;31.40;;
21671;SDS011;10997;52.242;8.168;2023-02-12T03:30:03;58.97;;;30.60;;
21671;SDS011;10997;52.242;8.168;2023-02-12T03:40:25;59.60;;;32.13;;
21671;SDS011;10997;52.242;8.168;2023-02-12T03:45:37;55.35;;;32.38;;
21671;SDS011;10997;52.242;8.168;2023-02-12T03:56:01;58.28;;;34.42;;
21671;SDS011;10997;52.242;8.168;2023-02-12T04:01:07;61.70;;;33.22;;
21671;SDS011;10997;52.242;8.168;2023-02-12T04:06:21;66.60;;;36.85;;
21671;SDS011;10997;52.242;8.168;2023-02-12T04:16:34;74.40;;;36.47;;
21671;SDS011;10997;52.242;8.168;2023-02-12T04:26:56;65.72;;;36.58;;
21671;SDS011;10997;52.242;8.168;2023-02-12T04:32:19;67.68;;;36.22;;
21671;SDS011;10997;52.242;8.168;2023-02-12T04:38:01;70.18;;;37.22;;
21671;SDS011;10997;52.242;8.168;2023-02-12T04:43:30;62.42;;;36.00;;
21671;SDS011;10997;52.242;8.168;2023-02-12T04:48:36;64.57;;;35.47;;
21671;SDS011;10997;52.242;8.168;2023-02-12T04:53:48;64.22;;;36.63;;
21671;SDS011;10997;52.242;8.168;2023-02-12T04:58:48;65.63;;;35.42;;
21671;SDS011;10997;52.242;8.168;2023-02-12T05:03:50;70.05;;;37.13;;
21671;SDS011;10997;52.242;8.168;2023-02-12T05:08:52;69.80;;;38.20;;
21671;SDS011;10997;52.242;8.168;2023-02-12T05:13:53;65.32;;;36.08;;
21671;SDS011;10997;52.242;8.168;2023-02-12T05:18:53;66.32;;;37.42;;
21671;SDS011;10997;52.242;8.168;2023-02-12T05:23:54;68.53;;;37.30;;
21671;SDS011;10997;52.242;8.168;2023-02-12T05:28:55;70.60;;;38.75;;
21671;SDS011;10997;52.242;8.168;2023-02-12T05:33:55;72.63;;;38.45;;
21671;SDS011;10997;52.242;8.168;2023-02-12T05:38:57;67.47;;;38.38;;
21671;SDS011;10997;52.242;8.168;2023-02-12T05:43:59;74.05;;;39.22;;
21671;SDS011;10997;52.242;8.168;2023-02-12T05:49:00;71.88;;;39.47;;
21671;SDS011;10997;52.242;8.168;2023-02-12T05:54:02;76.97;;;39.10;;
21671;SDS011;10997;52.242;8.168;2023-02-12T05:59:04;76.05;;;40.05;;
21671;SDS011;10997;52.242;8.168;2023-02-12T06:04:08;78.95;;;41.00;;
21671;SDS011;10997;52.242;8.168;2023-02-12T06:09:12;75.17;;;39.90;;
21671;SDS011;10997;52.242;8.168;2023-02-12T06:14:14;73.05;;;40.33;;
21671;SDS011;10997;52.242;8.168;2023-02-12T06:19:16;78.28;;;40.30;;
21671;SDS011;10997;52.242;8.168;2023-02-12T06:24:17;82.07;;;39.95;;
21671;SDS011;10997;52.242;8.168;2023-02-12T06:29:18;73.63;;;39.40;;
21671;SDS011;10997;52.242;8.168;2023-02-12T06:34:20;76.30;;;40.03;;
21671;SDS011;10997;52.242;8.168;2023-02-12T06:39:20;76.45;;;39.35;;
21671;SDS011;10997;52.242;8.168;2023-02-12T06:44:21;81.88;;;39.47;;
21671;SDS011;10997;52.242;8.168;2023-02-12T06:49:22;79.18;;;40.15;;
21671;SDS011;10997;52.242;8.168;2023-02-12T06:54:22;72.32;;;38.75;;
21671;SDS011;10997;52.242;8.168;2023-02-12T06:59:23;79.85;;;38.72;;
21671;SDS011;10997;52.242;8.168;2023-02-12T07:04:23;86.45;;;40.97;;
21671;SDS011;10997;52.242;8.168;2023-02-12T07:09:24;84.75;;;40.83;;
21671;SDS011;10997;52.242;8.168;2023-02-12T07:14:24;78.80;;;39.53;;
21671;SDS011;10997;52.242;8.168;2023-02-12T07:19:27;81.30;;;40.13;;
21671;SDS011;10997;52.242;8.168;2023-02-12T07:24:28;91.05;;;39.63;;
21671;SDS011;10997;52.242;8.168;2023-02-12T07:29:28;84.28;;;40.03;;
21671;SDS011;10997;52.242;8.168;2023-02-12T07:34:29;84.15;;;41.20;;
21671;SDS011;10997;52.242;8.168;2023-02-12T07:39:30;89.00;;;42.45;;
21671;SDS011;10997;52.242;8.168;2023-02-12T07:44:30;94.00;;;42.63;;
21671;SDS011;10997;52.242;8.168;2023-02-12T07:49:33;90.35;;;42.95;;
21671;SDS011;10997;52.242;8.168;2023-02-12T07:54:33;96.18;;;42.67;;
21671;SDS011;10997;52.242;8.168;2023-02-12T07:59:34;96.20;;;42.70;;
21671;SDS011;10997;52.242;8.168;2023-02-12T08:04:35;89.13;;;43.28;;
21671;SDS011;10997;52.242;8.168;2023-02-12T08:09:35;93.30;;;42.95;;
21671;SDS011;10997;52.242;8.168;2023-02-12T08:14:36;92.97;;;40.72;;
21671;SDS011;10997;52.242;8.168;2023-02-12T08:19:36;88.10;;;39.20;;
21671;SDS011;10997;52.242;8.168;2023-02-12T08:24:37;87.13;;;39.55;;
21671;SDS011;10997;52.242;8.168;2023-02-12T08:29:37;79.20;;;37.42;;
21671;SDS011;10997;52.242;8.168;2023-02-12T08:34:38;81.25;;;36.88;;
21671;SDS011;10997;52.242;8.168;2023-02-12T08:39:39;83.80;;;39.58;;
21671;SDS011;10997;52.242;8.168;2023-02-12T08:44:40;77.75;;;39.28;;
21671;SDS011;10997;52.242;8.168;2023-02-12T08:49:41;78.72;;;39.05;;
21671;SDS011;10997;52.242;8.168;2023-02-12T08:54:42;75.40;;;36.17;;
21671;SDS011;10997;52.242;8.168;2023-02-12T08:59:43;75.03;;;37.40;;
21671;SDS011;10997;52.242;8.168;2023-02-12T09:04:43;73.05;;;34.25;;
21671;SDS011;10997;52.242;8.168;2023-02-12T09:09:44;70.72;;;34.50;;
21671;SDS011;10997;52.242;8.168;2023-02-12T09:14:44;71.40;;;34.35;;
21671;SDS011;10997;52.242;8.168;2023-02-12T09:19:45;78.80;;;36.75;;
21671;SDS011;10997;52.242;8.168;2023-02-12T09:24:45;73.00;;;35.45;;
21671;SDS011;10997;52.242;8.168;2023-02-12T09:29:46;74.43;;;37.03;;
21671;SDS011;10997;52.242;8.168;2023-02-12T09:34:46;74.15;;;36.58;;
21671;SDS011;10997;52.242;8.168;2023-02-12T09:39:47;80.38;;;39.15;;
21671;SDS011;10997;52.242;8.168;2023-02-12T09:55:50;72.95;;;38.70;;
21671;SDS011;10997;52.242;8.168;2023-02-12T10:00:51;66.35;;;35.80;;
21671;SDS011;10997;52.242;8.168;2023-02-12T10:06:02;69.47;;;37.08;;
21671;SDS011;10997;52.242;8.168;2023-02-12T10:11:20;58.20;;;32.08;;
21671;SDS011;10997;52.242;8.168;2023-02-12T10:27:41;53.20;;;30.80;;
21671;SDS011;10997;52.242;8.168;2023-02-12T10:32:48;55.53;;;30.83;;
21671;SDS011;10997;52.242;8.168;2023-02-12T10:37:54;56.10;;;31.95;;
21671;SDS011;10997;52.242;8.168;2023-02-12T10:43:04;55.55;;;32.28;;
21671;SDS011;10997;52.242;8.168;2023-02-12T10:48:07;55.88;;;31.63;;
21671;SDS011;10997;52.242;8.168;2023-02-12T10:53:22;62.25;;;32.13;;
21671;SDS011;10997;52.242;8.168;2023-02-12T10:58:34;63.10;;;33.47;;
21671;SDS011;10997;52.242;8.168;2023-02-12T11:03:35;58.22;;;31.05;;
21671;SDS011;10997;52.242;8.168;2023-02-12T11:08:38;60.90;;;32.85;;
21671;SDS011;10997;52.242;8.168;2023-02-12T11:13:52;61.40;;;32.30;;
21671;SDS011;10997;52.242;8.168;2023-02-12T11:18:59;55.00;;;31.50;;
21671;SDS011;10997;52.242;8.168;2023-02-12T11:29:27;54.42;;;30.63;;
21671;SDS011;10997;52.242;8.168;2023-02-12T11:34:28;49.75;;;28.23;;
21671;SDS011;10997;52.242;8.168;2023-02-12T11:39:35;48.83;;;27.33;;
21671;SDS011;10997;52.242;8.168;2023-02-12T11:44:38;50.38;;;27.98;;
21671;SDS011;10997;52.242;8.168;2023-02-12T11:49:49;46.75;;;26.13;;
21671;SDS011;10997;52.242;8.168;2023-02-12T11:54:55;44.05;;;27.30;;
21671;SDS011;10997;52.242;8.168;2023-02-12T11:59:59;46.93;;;25.47;;
21671;SDS011;10997;52.242;8.168;2023-02-12T12:05:07;40.30;;;21.42;;
21671;SDS011;10997;52.242;8.168;2023-02-12T12:10:17;30.00;;;18.08;;
21671;SDS011;10997;52.242;8.168;2023-02-12T12:15:34;30.55;;;18.45;;
21671;SDS011;10997;52.242;8.168;2023-02-12T12:21:07;33.35;;;17.63;;
21671;SDS011;10997;52.242;8.168;2023-02-12T12:26:13;26.92;;;17.75;;
21671;SDS011;10997;52.242;8.168;2023-02-12T12:31:37;29.65;;;18.17;;
21671;SDS011;10997;52.242;8.168;2023-02-12T12:52:36;22.13;;;13.18;;
21671;SDS011;10997;52.242;8.168;2023-02-12T13:25:12;11.65;;;7.80;;
21671;SDS011;10997;52.242;8.168;2023-02-12T13:35:56;12.70;;;7.70;;
21671;SDS011;10997;52.242;8.168;2023-02-12T13:41:04;13.25;;;7.75;;
21671;SDS011;10997;52.242;8.168;2023-02-12T13:56:41;13.23;;;7.60;;
21671;SDS011;10997;52.242;8.168;2023-02-12T14:01:50;12.02;;;6.85;;
21671;SDS011;10997;52.242;8.168;2023-02-12T14:06:51;9.82;;;6.10;;
21671;SDS011;10997;52.242;8.168;2023-02-12T14:12:00;13.43;;;6.70;;
21671;SDS011;10997;52.242;8.168;2023-02-12T14:37:53;6.40;;;4.10;;
21671;SDS011;10997;52.242;8.168;2023-02-12T14:42:59;7.15;;;4.38;;
21671;SDS011;10997;52.242;8.168;2023-02-12T14:48:02;7.93;;;4.30;;
21671;SDS011;10997;52.242;8.168;2023-02-12T14:53:19;7.15;;;4.93;;
21671;SDS011;10997;52.242;8.168;2023-02-12T14:58:26;6.95;;;4.32;;
21671;SDS011;10997;52.242;8.168;2023-02-12T15:24:38;9.30;;;5.35;;
21671;SDS011;10997;52.242;8.168;2023-02-12T15:29:43;9.40;;;4.82;;
21671;SDS011;10997;52.242;8.168;2023-02-12T15:34:47;8.93;;;5.70;;
21671;SDS011;10997;52.242;8.168;2023-02-12T15:39:49;10.65;;;6.50;;
21671;SDS011;10997;52.242;8.168;2023-02-12T15:50:13;11.68;;;6.45;;
21671;SDS011;10997;52.242;8.168;2023-02-12T15:55:16;11.25;;;6.97;;
21671;SDS011;10997;52.242;8.168;2023-02-12T16:00:29;10.45;;;7.32;;
21671;SDS011;10997;52.242;8.168;2023-02-12T16:05:42;10.60;;;6.53;;
21671;SDS011;10997;52.242;8.168;2023-02-12T16:10:43;11.93;;;7.25;;
21671;SDS011;10997;52.242;8.168;2023-02-12T16:16:01;9.93;;;6.43;;
21671;SDS011;10997;52.242;8.168;2023-02-12T16:21:04;9.18;;;6.53;;
21671;SDS011;10997;52.242;8.168;2023-02-12T16:26:21;8.98;;;6.60;;
21671;SDS011;10997;52.242;8.168;2023-02-12T16:31:25;15.40;;;8.80;;
21671;SDS011;10997;52.242;8.168;2023-02-12T16:36:28;13.88;;;8.20;;
21671;SDS011;10997;52.242;8.168;2023-02-12T16:41:31;13.35;;;8.48;;
21671;SDS011;10997;52.242;8.168;2023-02-12T16:46:43;12.15;;;8.75;;
21671;SDS011;10997;52.242;8.168;2023-02-12T16:51:50;13.55;;;9.20;;
21671;SDS011;10997;52.242;8.168;2023-02-12T16:56:51;15.90;;;9.20;;
21671;SDS011;10997;52.242;8.168;2023-02-12T17:06:58;14.93;;;9.25;;
21671;SDS011;10997;52.242;8.168;2023-02-12T17:11:59;12.23;;;8.90;;
21671;SDS011;10997;52.242;8.168;2023-02-12T17:16:59;15.60;;;9.70;;
21671;SDS011;10997;52.242;8.168;2023-02-12T17:22:00;20.08;;;14.80;;
21671;SDS011;10997;52.242;8.168;2023-02-12T17:27:02;15.95;;;11.98;;
21671;SDS011;10997;52.242;8.168;2023-02-12T17:32:03;14.27;;;9.68;;
21671;SDS011;10997;52.242;8.168;2023-02-12T17:37:05;19.75;;;11.20;;
21671;SDS011;10997;52.242;8.168;2023-02-12T17:42:05;14.68;;;10.98;;
21671;SDS011;10997;52.242;8.168;2023-02-12T17:47:06;21.63;;;13.55;;
21671;SDS011;10997;52.242;8.168;2023-02-12T17:52:13;18.42;;;12.82;;
21671;SDS011;10997;52.242;8.168;2023-02-12T17:57:13;20.42;;;12.15;;
21671;SDS011;10997;52.242;8.168;2023-02-12T18:02:14;20.05;;;15.45;;
21671;SDS011;10997;52.242;8.168;2023-02-12T18:07:15;19.20;;;13.60;;
21671;SDS011;10997;52.242;8.168;2023-02-12T18:12:15;18.77;;;12.27;;
21671;SDS011;10997;52.242;8.168;2023-02-12T18:17:16;18.90;;;13.00;;
21671;SDS011;10997;52.242;8.168;2023-02-12T18:22:17;17.02;;;12.13;;
21671;SDS011;10997;52.242;8.168;2023-02-12T18:27:17;16.65;;;12.43;;
21671;SDS011;10997;52.242;8.168;2023-02-12T18:32:18;19.13;;;13.13;;
21671;SDS011;10997;52.242;8.168;2023-02-12T18:37:19;43.42;;;25.88;;
21671;SDS011;10997;52.242;8.168;2023-02-12T18:42:19;36.10;;;24.23;;
21671;SDS011;10997;52.242;8.168;2023-02-12T18:47:20;23.10;;;15.38;;
21671;SDS011;10997;52.242;8.168;2023-02-12T18:52:20;19.30;;;12.98;;
21671;SDS011;10997;52.242;8.168;2023-02-12T18:57:21;25.80;;;17.75;;
21671;SDS011;10997;52.242;8.168;2023-02-12T19:02:22;26.67;;;17.75;;
21671;SDS011;10997;52.242;8.168;2023-02-12T19:07:28;22.58;;;15.32;;
21671;SDS011;10997;52.242;8.168;2023-02-12T19:12:29;24.27;;;16.33;;
21671;SDS011;10997;52.242;8.168;2023-02-12T19:17:30;22.77;;;14.43;;
21671;SDS011;10997;52.242;8.168;2023-02-12T19:22:30;16.95;;;12.68;;
21671;SDS011;10997;52.242;8.168;2023-02-12T19:27:31;20.48;;;12.63;;
21671;SDS011;10997;52.242;8.168;2023-02-12T19:32:32;19.92;;;12.88;;
21671;SDS011;10997;52.242;8.168;2023-02-12T19:37:33;21.08;;;13.38;;
21671;SDS011;10997;52.242;8.168;2023-02-12T19:42:33;20.15;;;13.63;;
21671;SDS011;10997;52.242;8.168;2023-02-12T19:47:34;20.50;;;13.68;;
21671;SDS011;10997;52.242;8.168;2023-02-12T19:52:35;23.98;;;15.30;;
21671;SDS011;10997;52.242;8.168;2023-02-12T19:57:36;24.20;;;16.40;;
21671;SDS011;10997;52.242;8.168;2023-02-12T20:02:37;18.92;;;14.18;;
21671;SDS011;10997;52.242;8.168;2023-02-12T20:07:38;31.98;;;17.40;;
21671;SDS011;10997;52.242;8.168;2023-02-12T20:12:38;26.15;;;16.35;;
21671;SDS011;10997;52.242;8.168;2023-02-12T20:17:40;24.75;;;15.40;;
21671;SDS011;10997;52.242;8.168;2023-02-12T20:22:40;23.15;;;15.77;;
21671;SDS011;10997;52.242;8.168;2023-02-12T20:27:41;22.52;;;15.18;;
21671;SDS011;10997;52.242;8.168;2023-02-12T20:32:41;20.05;;;14.88;;
21671;SDS011;10997;52.242;8.168;2023-02-12T20:37:45;21.75;;;15.75;;
21671;SDS011;10997;52.242;8.168;2023-02-12T20:42:46;23.50;;;16.65;;
21671;SDS011;10997;52.242;8.168;2023-02-12T20:47:46;22.80;;;16.55;;
21671;SDS011;10997;52.242;8.168;2023-02-12T20:52:47;25.35;;;17.25;;
21671;SDS011;10997;52.242;8.168;2023-02-12T20:57:47;28.60;;;17.98;;
21671;SDS011;10997;52.242;8.168;2023-02-12T21:02:48;30.60;;;17.45;;
21671;SDS011;10997;52.242;8.168;2023-02-12T21:07:49;25.30;;;17.52;;
21671;SDS011;10997;52.242;8.168;2023-02-12T21:12:50;26.55;;;19.25;;
21671;SDS011;10997;52.242;8.168;2023-02-12T21:17:50;29.52;;;19.58;;
21671;SDS011;10997;52.242;8.168;2023-02-12T21:22:51;27.92;;;19.17;;
21671;SDS011;10997;52.242;8.168;2023-02-12T21:27:52;26.60;;;19.70;;
21671;SDS011;10997;52.242;8.168;2023-02-12T21:32:52;28.15;;;19.65;;
21671;SDS011;10997;52.242;8.168;2023-02-12T21:37:53;29.33;;;20.08;;
21671;SDS011;10997;52.242;8.168;2023-02-12T21:42:53;30.88;;;21.92;;
21671;SDS011;10997;52.242;8.168;2023-02-12T21:47:54;31.77;;;20.60;;
21671;SDS011;10997;52.242;8.168;2023-02-12T21:52:55;30.55;;;20.80;;
21671;SDS011;10997;52.242;8.168;2023-02-12T21:57:55;30.33;;;21.42;;
21671;SDS011;10997;52.242;8.168;2023-02-12T22:02:56;31.50;;;22.42;;
21671;SDS011;10997;52.242;8.168;2023-02-12T22:07:56;40.83;;;26.98;;
21671;SDS011;10997;52.242;8.168;2023-02-12T22:12:57;36.40;;;24.52;;
21671;SDS011;10997;52.242;8.168;2023-02-12T22:17:57;36.30;;;23.10;;
21671;SDS011;10997;52.242;8.168;2023-02-12T22:22:58;32.13;;;21.60;;
21671;SDS011;10997;52.242;8.168;2023-02-12T22:27:59;35.38;;;24.02;;
21671;SDS011;10997;52.242;8.168;2023-02-12T22:33:06;34.42;;;23.98;;
21671;SDS011;10997;52.242;8.168;2023-02-12T22:38:06;36.55;;;25.15;;
21671;SDS011;10997;52.242;8.168;2023-02-12T22:43:07;34.92;;;24.73;;
21671;SDS011;10997;52.242;8.168;2023-02-12T22:48:07;32.58;;;22.75;;
21671;SDS011;10997;52.242;8.168;2023-02-12T22:53:08;31.58;;;21.52;;
21671;SDS011;10997;52.242;8.168;2023-02-12T22:58:09;35.72;;;22.83;;
21671;SDS011;10997;52.242;8.168;2023-02-12T23:03:10;31.35;;;21.52;;
21671;SDS011;10997;52.242;8.168;2023-02-12T23:08:10;35.63;;;23.38;;
21671;SDS011;10997;52.242;8.168;2023-02-12T23:13:11;33.78;;;23.60;;
21671;SDS011;10997;52.242;8.168;2023-02-12T23:18:11;33.75;;;23.25;;
21671;SDS011;10997;52.242;8.168;2023-02-12T23:23:12;36.20;;;24.77;;
21671;SDS011;10997;52.242;8.168;2023-02-12T23:28:12;39.05;;;25.85;;
21671;SDS011;10997;52.242;8.168;2023-02-12T23:33:13;38.72;;;27.52;;
21671;SDS011;10997;52.242;8.168;2023-02-12T23:38:15;39.33;;;25.95;;
21671;SDS011;10997;52.242;8.168;2023-02-12T23:43:16;42.75;;;27.35;;
21671;SDS011;10997;52.242;8.168;2023-02-12T23:48:17;42.72;;;27.27;;
21671;SDS011;10997;52.242;8.168;2023-02-12T23:53:18;40.42;;;26.92;;
21671;SDS011;10997;52.242;8.168;2023-02-12T23:58:18;36.88;;;25.67;;
